ePrivacy and GPDR Cookie Consent by Cookie Consent
EmailTwitter


Observations de surface / France / LFMK (07635)

Régions: Québec | Canada | États-Unis | Europe | France | UK | Ailleurs
Station
Affichage
Infos & localisation pour LFMK (07635) | Aide pour décoder les METARs

Observations prises le 2022-01-24 à 17H30 UTC à CARCASSONNE/SALV, FR (LFMK)

Température: 8.0 Celsius

Point de rosée: 4.0 Celsius

Humidité relative: 76%

Vents: Est à 9 km/h ou 5 noeuds.

Pression au niveau moyen de la mer: 103.00 kilopascals.

Observation METAR:

LFMK 241730Z AUTO 09005KT CAVOK 08/04 Q1030 NOSIG=